Time;durP1;ratioP1;P1;durP2;ratioP2;P2;SDS_P1;SDS_P2;PMS_P1;PMS_P2;Temp;Humidity;BMP_temperature;BMP_pressure;BME280_temperature;BME280_humidity;BME280_pressure;Samples;Min_cycle;Max_cycle;Signal;HPM_P1;HPM_P2
2022/04/30 00:00:51;;;;;;;9.82;5.95;;;12.00;55.10;;;;;;5016135;28;20077;-89
2022/04/30 00:03:18;;;;;;;7.45;5.28;;;12.20;55.20;;;;;;4994473;28;20709;-87
2022/04/30 00:05:51;;;;;;;9.40;5.47;;;12.20;55.10;;;;;;4996918;28;20049;-87
2022/04/30 00:08:18;;;;;;;8.93;5.32;;;12.00;55.20;;;;;;5008608;28;20104;-89
2022/04/30 00:10:45;;;;;;;8.70;5.63;;;12.10;55.20;;;;;;5018279;28;20410;-88
2022/04/30 00:13:12;;;;;;;8.02;5.47;;;12.00;55.30;;;;;;4993762;28;20043;-89
2022/04/30 00:15:39;;;;;;;8.40;5.43;;;11.90;55.20;;;;;;4997314;28;20041;-89
2022/04/30 00:18:08;;;;;;;7.10;4.80;;;11.70;55.20;;;;;;5020850;28;20093;-89
2022/04/30 00:20:38;;;;;;;7.88;5.10;;;11.80;55.20;;;;;;4995658;28;20536;-90
2022/04/30 00:23:19;;;;;;;7.30;4.78;;;11.80;55.40;;;;;;5032964;28;20053;-90
2022/04/30 00:25:51;;;;;;;9.57;5.75;;;11.70;55.60;;;;;;5029325;28;20061;-89
2022/04/30 00:28:20;;;;;;;5.95;4.93;;;11.90;55.40;;;;;;4999976;28;20045;-91
2022/04/30 00:30:50;;;;;;;7.68;5.10;;;11.90;55.40;;;;;;5032691;28;20042;-89
2022/04/30 00:33:17;;;;;;;5.40;4.90;;;11.90;55.50;;;;;;5032472;28;20038;-90
2022/04/30 00:35:44;;;;;;;7.53;4.78;;;11.90;55.60;;;;;;5032690;28;20050;-89
2022/04/30 00:38:12;;;;;;;7.82;5.57;;;11.70;55.50;;;;;;4995565;28;20050;-89
2022/04/30 00:40:41;;;;;;;6.03;4.72;;;11.70;55.70;;;;;;5017822;28;20049;-89
2022/04/30 00:43:08;;;;;;;8.38;5.20;;;11.80;55.60;;;;;;5049065;28;20061;-89
2022/04/30 00:45:35;;;;;;;11.43;5.80;;;11.70;55.80;;;;;;5033924;28;20058;-88
2022/04/30 00:48:28;;;;;;;8.20;5.55;;;11.80;55.90;;;;;;5024786;28;20052;-90
2022/04/30 00:50:56;;;;;;;7.20;5.03;;;11.60;56.50;;;;;;5009231;28;20501;-89
2022/04/30 00:53:23;;;;;;;7.30;5.15;;;11.70;55.70;;;;;;4993036;28;20053;-90
2022/04/30 00:55:51;;;;;;;8.10;4.85;;;11.70;55.90;;;;;;5008541;28;20041;-90
2022/04/30 00:58:20;;;;;;;7.20;4.88;;;11.60;55.90;;;;;;5024336;28;20508;-88
2022/04/30 01:00:49;;;;;;;6.22;5.25;;;11.40;56.30;;;;;;5015758;28;20046;-89
2022/04/30 01:03:29;;;;;;;6.55;4.80;;;11.40;56.20;;;;;;4995719;28;20546;-90
2022/04/30 01:06:06;;;;;;;5.78;4.88;;;11.50;56.20;;;;;;4988589;28;20042;-89
2022/04/30 01:08:33;;;;;;;8.80;4.80;;;11.30;56.20;;;;;;4996226;28;20050;-88
2022/04/30 01:11:01;;;;;;;7.22;4.72;;;11.40;56.40;;;;;;5012326;28;20173;-89
2022/04/30 01:13:29;;;;;;;6.80;4.88;;;11.30;56.40;;;;;;5028640;28;20486;-89
2022/04/30 01:15:58;;;;;;;10.20;5.25;;;11.20;56.50;;;;;;4988785;28;20149;-89
2022/04/30 01:18:26;;;;;;;5.30;4.78;;;11.10;56.60;;;;;;5028498;28;20042;-88
2022/04/30 01:20:58;;;;;;;5.75;4.28;;;11.30;56.80;;;;;;5012346;28;20048;-90
2022/04/30 01:23:26;;;;;;;4.97;4.35;;;11.30;56.90;;;;;;5028143;28;20046;-90
2022/04/30 01:25:54;;;;;;;6.15;4.63;;;11.20;57.00;;;;;;5001881;28;20044;-89
2022/04/30 01:28:21;;;;;;;7.30;5.72;;;11.20;56.90;;;;;;5031889;28;20516;-89
2022/04/30 01:30:48;;;;;;;6.35;5.07;;;11.20;57.10;;;;;;5048423;28;20140;-89
2022/04/30 01:38:47;;;;;;;8.55;5.10;;;10.90;57.20;;;;;;5008618;28;20046;-89
2022/04/30 01:41:14;;;;;;;6.78;5.20;;;10.80;57.20;;;;;;5011643;28;20137;-89
2022/04/30 01:43:42;;;;;;;8.48;5.13;;;11.10;57.40;;;;;;5031267;28;20037;-89
2022/04/30 01:46:09;;;;;;;7.70;5.32;;;10.90;57.50;;;;;;5015012;28;20069;-89
2022/04/30 01:48:37;;;;;;;7.07;5.68;;;10.80;57.50;;;;;;5011891;28;20046;-90
2022/04/30 01:51:04;;;;;;;6.30;5.28;;;11.00;57.60;;;;;;5043393;28;20037;-90
2022/04/30 01:53:31;;;;;;;8.45;5.82;;;10.80;57.60;;;;;;5030631;28;20073;-88
2022/04/30 01:55:59;;;;;;;7.50;5.68;;;11.00;57.80;;;;;;4999092;28;20042;-89
2022/04/30 01:58:36;;;;;;;7.63;4.60;;;10.80;57.70;;;;;;4996879;28;20042;-89
2022/04/30 02:01:07;;;;;;;7.07;5.10;;;10.70;57.70;;;;;;5023725;28;20103;-89
2022/04/30 02:03:34;;;;;;;7.70;5.38;;;10.90;58.00;;;;;;5039836;28;20046;-88
2022/04/30 02:06:02;;;;;;;6.53;4.35;;;11.00;58.20;;;;;;5015810;28;20080;-89
2022/04/30 02:08:32;;;;;;;6.97;5.00;;;10.60;58.00;;;;;;5015243;28;20096;-88
2022/04/30 02:10:59;;;;;;;7.75;5.97;;;10.80;58.20;;;;;;4999482;28;20128;-89
2022/04/30 02:13:28;;;;;;;6.50;5.18;;;10.80;58.50;;;;;;5015303;28;20112;-89
2022/04/30 02:15:56;;;;;;;8.23;5.07;;;10.80;58.40;;;;;;5008408;28;20046;-89
2022/04/30 02:18:25;;;;;;;8.23;5.32;;;10.60;58.50;;;;;;4996409;28;20047;-88
2022/04/30 02:20:53;;;;;;;5.80;5.00;;;10.60;58.50;;;;;;5037567;28;20056;-89
2022/04/30 02:23:22;;;;;;;8.68;5.30;;;10.70;58.50;;;;;;5049706;28;20037;-90
2022/04/30 02:25:51;;;;;;;6.40;5.28;;;10.50;58.60;;;;;;5034665;28;20053;-90
2022/04/30 02:28:18;;;;;;;7.35;5.13;;;10.50;58.70;;;;;;5035527;28;20050;-90
2022/04/30 02:30:44;;;;;;;8.77;6.00;;;10.70;59.10;;;;;;5006170;28;20483;-89
2022/04/30 02:33:12;;;;;;;7.35;5.47;;;10.40;58.90;;;;;;5051658;28;20081;-90
2022/04/30 02:35:44;;;;;;;9.40;5.68;;;10.60;59.20;;;;;;5048142;28;20115;-89
2022/04/30 02:38:12;;;;;;;6.85;4.88;;;10.60;59.10;;;;;;5043127;28;20053;-90
2022/04/30 02:40:40;;;;;;;9.75;5.85;;;10.50;59.00;;;;;;5011380;28;20066;-89
2022/04/30 02:43:10;;;;;;;6.53;4.88;;;10.50;59.20;;;;;;4995697;28;20050;-87
2022/04/30 02:45:39;;;;;;;7.95;5.55;;;10.30;59.10;;;;;;4995350;28;20054;-90
2022/04/30 02:48:07;;;;;;;8.23;5.25;;;10.50;59.20;;;;;;4992909;28;20046;-89
2022/04/30 02:50:36;;;;;;;6.00;4.97;;;10.30;59.40;;;;;;4998264;28;20045;-90
2022/04/30 02:53:03;;;;;;;7.07;5.10;;;10.50;59.40;;;;;;5015002;28;20042;-90
2022/04/30 02:55:31;;;;;;;5.60;4.20;;;10.30;59.60;;;;;;4998400;28;20050;-89
2022/04/30 03:00:48;;;;;;;8.13;5.18;;;10.40;59.60;;;;;;5011148;28;20081;-88
2022/04/30 03:03:33;;;;;;;7.35;4.68;;;10.40;59.50;;;;;;5009337;28;20057;-89
2022/04/30 03:06:01;;;;;;;8.27;5.22;;;10.20;59.40;;;;;;5014585;28;20054;-89
2022/04/30 03:08:28;;;;;;;6.53;4.63;;;10.30;59.50;;;;;;5022471;28;20056;-89
2022/04/30 03:10:56;;;;;;;6.28;4.50;;;10.30;59.60;;;;;;5030732;28;20034;-89
2022/04/30 03:13:24;;;;;;;5.22;4.15;;;10.10;59.50;;;;;;4995735;28;20052;-89
2022/04/30 03:15:54;;;;;;;7.57;4.78;;;10.00;59.50;;;;;;5005357;28;20034;-90
2022/04/30 03:23:38;;;;;;;7.05;5.15;;;10.10;59.60;;;;;;5030785;28;20073;-89
2022/04/30 03:26:09;;;;;;;6.43;5.03;;;10.20;59.60;;;;;;5010378;28;20053;-89
2022/04/30 03:28:37;;;;;;;5.97;4.80;;;10.00;59.50;;;;;;4994591;28;20162;-88
2022/04/30 03:31:10;;;;;;;7.18;5.22;;;10.10;59.50;;;;;;4995196;28;20042;-90
2022/04/30 03:33:38;;;;;;;7.57;4.90;;;10.00;59.80;;;;;;5001036;28;20038;-89
2022/04/30 03:36:06;;;;;;;9.27;5.22;;;10.10;59.70;;;;;;5011899;28;20556;-89
2022/04/30 03:38:33;;;;;;;7.53;4.65;;;9.90;59.70;;;;;;5025809;28;20136;-90
2022/04/30 03:41:00;;;;;;;7.72;4.82;;;10.00;60.00;;;;;;5033821;28;20052;-89
2022/04/30 03:43:27;;;;;;;6.45;4.25;;;10.00;59.80;;;;;;5050835;28;20045;-89
2022/04/30 03:45:54;;;;;;;6.93;4.88;;;10.00;59.90;;;;;;5040163;28;20060;-88
2022/04/30 03:48:21;;;;;;;5.78;4.07;;;10.00;60.00;;;;;;5015821;28;20073;-90
2022/04/30 03:50:49;;;;;;;6.75;4.78;;;10.00;59.80;;;;;;5019249;28;20481;-89
2022/04/30 03:53:15;;;;;;;5.97;4.78;;;9.70;59.90;;;;;;5021797;28;20077;-90
2022/04/30 03:55:43;;;;;;;6.75;4.65;;;9.70;60.00;;;;;;5002028;28;20045;-90
2022/04/30 03:58:10;;;;;;;8.25;4.60;;;9.90;60.10;;;;;;5049918;28;20140;-90
2022/04/30 04:00:37;;;;;;;7.25;4.65;;;9.70;60.10;;;;;;5034052;28;20049;-90
2022/04/30 04:03:04;;;;;;;7.50;4.55;;;9.60;59.90;;;;;;5050131;28;20049;-89
2022/04/30 04:05:31;;;;;;;5.65;4.40;;;9.60;60.00;;;;;;5046104;28;20112;-90
2022/04/30 04:07:59;;;;;;;5.88;4.43;;;9.80;60.00;;;;;;5013263;28;20045;-90
2022/04/30 04:10:26;;;;;;;7.57;4.40;;;9.70;60.10;;;;;;5024953;28;20046;-90
2022/04/30 04:17:37;;;;;;;5.72;4.20;;;9.70;60.10;;;;;;5008571;28;20038;-90
2022/04/30 04:18:26;;;;;;;5.45;4.35;;;9.70;60.20;;;;;;5033203;28;20045;-89
2022/04/30 04:20:53;;;;;;;7.05;4.57;;;9.60;60.20;;;;;;5039983;28;20039;-90
2022/04/30 04:23:23;;;;;;;10.02;5.18;;;9.40;60.30;;;;;;5014895;28;20049;-90
2022/04/30 04:26:00;;;;;;;6.07;4.88;;;9.70;60.50;;;;;;5035564;28;20053;-90
2022/04/30 04:28:28;;;;;;;6.32;4.57;;;9.40;60.30;;;;;;5013561;28;20116;-90
2022/04/30 04:30:56;;;;;;;6.03;4.82;;;9.40;60.40;;;;;;5027626;28;20527;-90
2022/04/30 04:33:24;;;;;;;7.65;4.60;;;9.60;60.70;;;;;;5022807;28;20130;-89
2022/04/30 04:35:51;;;;;;;10.95;5.45;;;9.30;60.70;;;;;;5012940;28;20050;-90
2022/04/30 04:38:18;;;;;;;5.80;4.93;;;9.30;61.40;;;;;;5013082;28;20053;-90
2022/04/30 04:40:45;;;;;;;8.50;5.45;;;9.30;61.10;;;;;;5013219;28;20061;-89
2022/04/30 04:43:12;;;;;;;9.05;5.13;;;9.30;61.30;;;;;;5022062;28;20060;-90
2022/04/30 04:45:40;;;;;;;6.78;4.95;;;9.40;61.40;;;;;;5049326;28;20060;-89
2022/04/30 04:48:08;;;;;;;8.65;5.55;;;9.20;61.30;;;;;;5049495;28;20136;-89
2022/04/30 04:50:35;;;;;;;8.90;4.95;;;9.20;61.50;;;;;;5014914;28;20128;-89
2022/04/30 04:53:02;;;;;;;7.07;4.82;;;9.30;61.60;;;;;;5030833;28;20076;-89
2022/04/30 04:55:29;;;;;;;7.03;5.15;;;9.20;61.70;;;;;;5012890;28;20048;-90
2022/04/30 04:57:56;;;;;;;9.18;5.35;;;9.20;61.90;;;;;;4997358;28;20057;-89
2022/04/30 05:00:23;;;;;;;9.35;5.97;;;9.40;62.00;;;;;;5013461;28;20060;-89
2022/04/30 05:02:53;;;;;;;8.95;5.90;;;9.20;62.00;;;;;;5019791;28;20049;-89
2022/04/30 05:05:21;;;;;;;7.10;5.32;;;9.50;62.30;;;;;;5032603;28;20049;-89
2022/04/30 05:07:47;;;;;;;12.00;5.60;;;9.30;62.10;;;;;;5043538;28;20133;-88
2022/04/30 05:10:15;;;;;;;8.23;5.68;;;9.40;62.30;;;;;;5023642;28;20048;-89
2022/04/30 05:12:45;;;;;;;7.63;5.32;;;9.30;62.20;;;;;;5026186;28;20072;-89
2022/04/30 05:15:13;;;;;;;6.50;5.30;;;9.30;62.40;;;;;;5030780;28;20095;-90
2022/04/30 05:17:40;;;;;;;7.72;5.50;;;9.40;62.40;;;;;;5041835;28;20111;-89
2022/04/30 05:20:08;;;;;;;9.10;5.25;;;9.60;62.70;;;;;;5036355;28;20046;-89
2022/04/30 05:22:54;;;;;;;8.32;5.90;;;9.40;62.70;;;;;;5009569;28;20445;-89
2022/04/30 05:25:24;;;;;;;7.32;5.15;;;9.70;62.80;;;;;;5003774;28;20045;-90
2022/04/30 05:27:57;;;;;;;11.02;6.22;;;9.50;62.70;;;;;;4992526;28;20041;-90
2022/04/30 05:30:24;;;;;;;11.80;5.82;;;9.80;63.00;;;;;;4997236;28;20105;-90
2022/04/30 05:32:51;;;;;;;9.23;6.43;;;9.80;63.10;;;;;;4996944;28;20572;-89
2022/04/30 05:35:18;;;;;;;10.00;5.85;;;9.90;63.10;;;;;;4980221;28;20047;-89
2022/04/30 05:37:45;;;;;;;8.10;6.50;;;9.90;63.80;;;;;;4996639;28;20050;-90
2022/04/30 05:40:12;;;;;;;11.40;6.18;;;9.90;63.10;;;;;;4982382;28;20057;-90
2022/04/30 05:42:39;;;;;;;10.57;6.32;;;10.00;63.30;;;;;;5036077;28;20072;-89
2022/04/30 05:45:06;;;;;;;10.55;6.50;;;9.90;63.20;;;;;;5026955;28;20056;-89
2022/04/30 05:47:33;;;;;;;7.60;5.57;;;9.90;63.20;;;;;;5043149;28;20052;-88
2022/04/30 05:50:00;;;;;;;12.88;6.25;;;10.10;63.10;;;;;;5042538;28;20045;-88
2022/04/30 05:52:27;;;;;;;11.13;6.80;;;10.10;63.20;;;;;;5017138;28;20042;-88
2022/04/30 05:54:54;;;;;;;11.27;7.03;;;10.00;63.20;;;;;;5020381;28;20046;-88
2022/04/30 05:57:21;;;;;;;11.88;6.70;;;10.10;63.60;;;;;;5008843;28;20046;-87
2022/04/30 05:59:48;;;;;;;10.25;6.70;;;10.00;63.40;;;;;;5015296;28;20536;-88
2022/04/30 06:02:18;;;;;;;10.40;6.45;;;10.10;63.60;;;;;;4997462;28;20049;-89
2022/04/30 06:04:46;;;;;;;9.85;6.45;;;10.10;63.60;;;;;;5007729;28;20460;-89
2022/04/30 06:07:16;;;;;;;13.00;6.93;;;10.10;63.60;;;;;;5030345;28;20061;-89
2022/04/30 06:09:43;;;;;;;11.90;7.25;;;10.10;63.50;;;;;;5022505;28;20049;-89
2022/04/30 06:12:10;;;;;;;9.98;6.88;;;10.20;63.80;;;;;;5015589;28;20135;-88
2022/04/30 06:14:37;;;;;;;12.70;6.63;;;10.40;63.80;;;;;;5032130;28;20050;-88
2022/04/30 06:17:05;;;;;;;10.77;6.97;;;10.50;64.00;;;;;;4998807;28;20137;-89
2022/04/30 06:19:31;;;;;;;10.55;7.63;;;10.40;63.90;;;;;;5012578;28;20050;-89
2022/04/30 06:21:58;;;;;;;10.50;6.38;;;10.70;64.00;;;;;;5028552;28;20049;-89
2022/04/30 06:24:35;;;;;;;10.88;6.85;;;10.80;64.10;;;;;;5037010;28;20773;-88
2022/04/30 06:27:02;;;;;;;8.98;6.53;;;10.90;64.60;;;;;;5001743;23;20608;-49
2022/04/30 06:29:31;;;;;;;9.50;7.53;;;10.70;63.40;;;;;;5019093;28;20396;-53
2022/04/30 06:31:58;;;;;;;15.15;6.72;;;10.80;63.20;;;;;;4991330;28;20489;-51
2022/04/30 06:34:24;;;;;;;8.73;6.80;;;10.90;63.20;;;;;;5028355;28;20108;-50
2022/04/30 06:36:51;;;;;;;10.48;6.53;;;11.00;63.20;;;;;;5016591;28;20064;-52
2022/04/30 06:39:19;;;;;;;9.73;6.68;;;11.00;63.10;;;;;;5028982;28;20053;-51
2022/04/30 06:41:45;;;;;;;11.60;7.88;;;11.10;63.10;;;;;;4997877;28;20073;-53
2022/04/30 06:44:13;;;;;;;11.52;7.30;;;11.20;63.20;;;;;;5047521;28;20050;-51
2022/04/30 06:46:40;;;;;;;11.82;6.95;;;11.30;62.90;;;;;;5015027;28;20053;-52
2022/04/30 06:49:07;;;;;;;12.10;7.15;;;11.30;62.60;;;;;;5029443;28;20069;-51
2022/04/30 06:51:34;;;;;;;11.48;6.78;;;11.30;62.30;;;;;;5019923;28;20124;-52
2022/04/30 06:59:41;;;;;;;9.55;7.35;;;11.40;62.40;;;;;;5030781;28;20459;-50
2022/04/30 07:02:17;;;;;;;11.50;7.75;;;11.40;62.40;;;;;;5031810;28;20530;-52
2022/04/30 07:04:54;;;;;;;9.52;7.22;;;11.40;62.50;;;;;;5030911;28;20125;-54
2022/04/30 07:07:21;;;;;;;10.43;7.07;;;11.40;62.30;;;;;;5034902;28;20592;-50
2022/04/30 07:09:55;;;;;;;9.07;6.82;;;11.40;62.20;;;;;;5030715;28;20037;-51
2022/04/30 07:12:24;;;;;;;10.60;7.10;;;11.40;62.40;;;;;;5031408;28;20125;-49
2022/04/30 07:14:51;;;;;;;12.48;8.07;;;11.40;62.70;;;;;;5032025;28;20061;-53
2022/04/30 07:17:17;;;;;;;10.95;7.55;;;11.50;62.90;;;;;;5031053;28;20041;-51
2022/04/30 07:19:44;;;;;;;12.13;6.88;;;11.50;62.80;;;;;;5037449;28;20041;-53
2022/04/30 07:22:11;;;;;;;11.75;7.18;;;11.50;62.40;;;;;;5028250;28;20037;-53
2022/04/30 07:24:38;;;;;;;8.15;7.18;;;11.60;62.40;;;;;;5030641;28;20742;-53
2022/04/30 07:27:09;;;;;;;10.90;6.60;;;11.60;62.40;;;;;;5030952;28;20056;-52
2022/04/30 07:29:38;;;;;;;14.48;8.30;;;11.70;62.30;;;;;;5032369;28;20516;-53
2022/04/30 07:32:08;;;;;;;8.02;6.97;;;11.70;62.40;;;;;;5027252;28;20088;-53
2022/04/30 07:34:36;;;;;;;10.65;7.35;;;11.80;62.20;;;;;;5008099;28;20057;-54
2022/04/30 07:37:11;;;;;;;9.05;6.28;;;11.80;62.00;;;;;;5026726;28;20428;-52
2022/04/30 07:39:38;;;;;;;9.13;5.70;;;11.90;62.20;;;;;;5032505;28;20388;-53
2022/04/30 07:42:10;;;;;;;6.60;4.63;;;12.00;61.60;;;;;;5032012;28;20053;-54
2022/04/30 07:44:39;;;;;;;5.90;4.85;;;12.10;61.20;;;;;;5029939;28;20276;-51
2022/04/30 07:47:11;;;;;;;8.73;5.15;;;12.20;60.50;;;;;;5029791;28;20056;-52
2022/04/30 07:49:37;;;;;;;6.78;5.00;;;12.40;60.00;;;;;;5029462;28;20103;-51
2022/04/30 07:52:08;;;;;;;8.35;5.13;;;12.50;59.90;;;;;;5031520;28;20091;-53
2022/04/30 07:54:34;;;;;;;8.90;5.20;;;12.60;59.50;;;;;;4991967;28;20103;-53
2022/04/30 07:57:01;;;;;;;9.35;5.72;;;12.80;59.40;;;;;;5026779;28;20037;-49
2022/04/30 07:59:28;;;;;;;9.82;5.57;;;12.90;59.40;;;;;;4996579;28;20056;-54
2022/04/30 08:01:55;;;;;;;7.90;6.32;;;13.10;59.40;;;;;;5026976;28;20103;-50
2022/04/30 08:04:22;;;;;;;7.88;5.63;;;13.10;58.90;;;;;;5018754;28;20041;-53
2022/04/30 08:06:51;;;;;;;6.75;5.22;;;13.30;59.10;;;;;;5026899;28;20049;-49
2022/04/30 08:09:18;;;;;;;6.57;5.38;;;13.30;58.80;;;;;;4991270;28;20037;-53
2022/04/30 08:11:45;;;;;;;7.30;5.00;;;13.40;58.60;;;;;;5022999;28;20125;-50
2022/04/30 08:14:11;;;;;;;10.43;5.78;;;13.50;58.20;;;;;;5016685;28;20591;-52
2022/04/30 08:16:38;;;;;;;10.98;6.80;;;13.60;58.20;;;;;;5024239;28;20087;-50
2022/04/30 08:19:05;;;;;;;6.90;5.50;;;13.60;57.80;;;;;;4994142;28;20037;-53
2022/04/30 08:21:34;;;;;;;7.85;5.03;;;13.60;57.90;;;;;;5014737;28;20048;-54
2022/04/30 08:24:01;;;;;;;8.18;5.43;;;13.70;57.90;;;;;;5020919;28;20037;-49
2022/04/30 08:26:27;;;;;;;7.65;5.07;;;13.70;57.10;;;;;;5021635;28;20095;-48
2022/04/30 08:28:54;;;;;;;5.28;4.63;;;13.70;56.90;;;;;;4994271;28;20033;-49
2022/04/30 08:31:21;;;;;;;6.05;5.45;;;13.70;57.20;;;;;;5027632;28;20547;-53
2022/04/30 08:33:48;;;;;;;9.88;5.35;;;13.70;56.80;;;;;;5016248;28;20389;-54
2022/04/30 08:36:14;;;;;;;5.88;5.28;;;13.80;56.90;;;;;;5023225;28;20041;-52
2022/04/30 08:38:41;;;;;;;8.00;4.53;;;13.80;55.80;;;;;;5000485;28;20040;-54
2022/04/30 08:41:10;;;;;;;6.43;4.72;;;13.80;55.30;;;;;;5026029;28;20123;-53
2022/04/30 08:43:39;;;;;;;7.55;4.30;;;13.70;55.00;;;;;;5017440;28;20112;-52
2022/04/30 08:46:06;;;;;;;5.40;3.28;;;13.70;54.80;;;;;;5018338;28;20072;-51
2022/04/30 08:48:34;;;;;;;2.60;2.40;;;13.70;54.20;;;;;;5010403;28;20120;-53
2022/04/30 08:51:02;;;;;;;3.63;2.72;;;13.60;53.20;;;;;;5025946;28;20633;-50
2022/04/30 08:53:29;;;;;;;4.30;2.90;;;13.60;52.80;;;;;;5020004;28;20041;-51
2022/04/30 08:55:56;;;;;;;3.55;2.90;;;13.50;52.50;;;;;;5017083;28;20041;-53
2022/04/30 08:58:23;;;;;;;3.50;2.80;;;13.50;53.00;;;;;;5015283;28;20852;-52
2022/04/30 09:00:50;;;;;;;3.10;2.85;;;13.40;53.00;;;;;;5024640;28;20501;-48
2022/04/30 09:03:19;;;;;;;4.53;2.97;;;13.40;52.90;;;;;;5015825;28;20528;-54
2022/04/30 09:05:48;;;;;;;3.88;3.10;;;13.40;52.90;;;;;;5023327;28;20056;-53
2022/04/30 09:08:16;;;;;;;5.68;3.03;;;13.40;53.20;;;;;;5012604;28;20073;-55
2022/04/30 09:10:43;;;;;;;4.32;3.50;;;13.40;53.50;;;;;;5023201;28;20076;-51
2022/04/30 09:13:15;;;;;;;5.25;3.15;;;13.40;53.50;;;;;;5026668;28;20505;-54
2022/04/30 09:15:44;;;;;;;3.70;3.30;;;13.50;53.50;;;;;;5021303;28;20700;-53
2022/04/30 09:18:13;;;;;;;5.50;3.08;;;13.50;53.40;;;;;;5018409;28;20034;-55
2022/04/30 09:20:49;;;;;;;3.78;2.80;;;13.60;53.00;;;;;;5020398;28;20080;-52
2022/04/30 09:23:23;;;;;;;3.55;2.75;;;13.70;52.90;;;;;;5011697;28;20045;-53
2022/04/30 09:25:55;;;;;;;4.00;3.00;;;13.80;52.00;;;;;;5023814;28;20513;-54
2022/04/30 09:28:33;;;;;;;4.57;3.35;;;13.90;52.70;;;;;;5022276;28;20045;-54
2022/04/30 09:31:07;;;;;;;3.70;2.47;;;14.00;51.60;;;;;;5028507;28;20458;-54
2022/04/30 09:33:43;;;;;;;4.00;3.40;;;14.00;51.40;;;;;;5010892;28;20750;-54
2022/04/30 09:38:55;;;;;;;3.05;2.75;;;14.00;51.10;;;;;;5018729;28;20037;-53
2022/04/30 09:41:27;;;;;;;4.70;2.65;;;14.00;50.70;;;;;;5027299;28;20509;-53
2022/04/30 09:44:00;;;;;;;4.07;2.63;;;14.00;50.20;;;;;;5017063;28;20053;-54
2022/04/30 09:46:28;;;;;;;5.13;2.95;;;14.00;51.30;;;;;;5022746;28;20050;-54
2022/04/30 09:54:28;;;;;;;4.90;2.60;;;14.00;50.30;;;;;;5017758;28;20042;-52
2022/04/30 09:56:58;;;;;;;3.97;2.83;;;14.10;50.30;;;;;;5022067;28;20056;-53
2022/04/30 09:59:26;;;;;;;3.00;2.53;;;14.10;50.20;;;;;;5012405;28;20187;-53
2022/04/30 10:01:53;;;;;;;3.00;2.47;;;14.10;50.10;;;;;;5024642;28;20045;-53
2022/04/30 10:04:21;;;;;;;3.22;2.85;;;14.10;49.90;;;;;;5017698;28;20037;-54
2022/04/30 10:06:53;;;;;;;3.03;2.72;;;14.20;50.40;;;;;;5022890;28;20041;-53
2022/04/30 10:09:21;;;;;;;5.65;2.47;;;14.20;49.80;;;;;;5010671;28;20045;-50
2022/04/30 10:12:10;;;;;;;3.25;2.30;;;14.20;50.20;;;;;;5019441;28;20091;-52
2022/04/30 10:15:15;;;;;;;2.47;2.28;;;14.30;49.40;;;;;;5011466;28;20091;-51
2022/04/30 10:17:45;;;;;;;4.00;2.15;;;14.30;50.00;;;;;;5030544;28;20564;-53
2022/04/30 10:20:18;;;;;;;3.78;2.63;;;14.40;51.00;;;;;;5028875;23;20057;-51
2022/04/30 10:22:54;;;;;;;3.40;2.53;;;14.50;50.60;;;;;;5023845;28;20637;-46
2022/04/30 10:25:42;;;;;;;3.33;1.70;;;14.60;49.60;;;;;;5011661;28;20041;-49
2022/04/30 10:28:14;;;;;;;6.90;2.22;;;14.60;47.60;;;;;;5023911;28;20081;-51
2022/04/30 10:30:43;;;;;;;1.98;1.70;;;14.70;47.70;;;;;;5018721;28;20048;-47
2022/04/30 10:33:10;;;;;;;4.18;2.05;;;14.70;48.80;;;;;;5007614;28;20076;-51
2022/04/30 10:35:39;;;;;;;2.88;2.33;;;14.70;48.50;;;;;;5012522;28;20528;-48
2022/04/30 10:38:14;;;;;;;1.90;1.80;;;14.80;47.80;;;;;;5019664;28;20113;-51
2022/04/30 10:40:45;;;;;;;2.20;1.90;;;14.80;48.60;;;;;;5018370;28;20102;-49
2022/04/30 10:43:26;;;;;;;2.30;2.10;;;14.90;48.40;;;;;;5003069;28;20747;-51
2022/04/30 10:45:55;;;;;;;3.45;2.10;;;15.00;47.30;;;;;;5021014;28;20144;-50
2022/04/30 10:48:23;;;;;;;2.33;2.13;;;15.10;47.80;;;;;;5018544;28;20878;-51
2022/04/30 10:51:07;;;;;;;2.47;2.03;;;15.20;49.30;;;;;;5020912;28;20065;-48
2022/04/30 10:53:38;;;;;;;2.42;2.22;;;15.30;47.30;;;;;;5007041;28;20041;-49
2022/04/30 10:56:06;;;;;;;2.60;2.00;;;15.30;48.10;;;;;;5022707;28;20541;-47
2022/04/30 10:58:35;;;;;;;2.20;2.00;;;15.40;47.70;;;;;;5007052;28;20099;-47
2022/04/30 11:01:17;;;;;;;2.40;2.20;;;15.50;46.80;;;;;;5020313;28;20070;-51
2022/04/30 11:03:49;;;;;;;2.88;1.85;;;15.50;45.80;;;;;;5002895;28;20107;-49
2022/04/30 11:06:21;;;;;;;2.35;1.98;;;15.50;46.10;;;;;;5024588;28;20692;-47
2022/04/30 11:09:04;;;;;;;3.92;1.85;;;15.50;45.70;;;;;;5009954;28;20057;-51
2022/04/30 11:11:32;;;;;;;3.13;2.00;;;15.50;46.30;;;;;;5018925;28;20049;-48
2022/04/30 11:14:01;;;;;;;3.08;1.85;;;15.50;45.80;;;;;;5006221;28;20069;-49
2022/04/30 11:16:38;;;;;;;3.50;1.50;;;15.50;46.40;;;;;;5020068;28;20115;-51
2022/04/30 11:19:10;;;;;;;2.58;1.27;;;15.60;46.80;;;;;;5012445;28;20138;-50
2022/04/30 11:21:38;;;;;;;;;;;15.70;46.30;;;;;;5022976;28;20065;-48
2022/04/30 11:24:06;;;;;;;4.90;2.22;;;15.80;46.60;;;;;;5013163;28;19929;-48
2022/04/30 11:26:36;;;;;;;2.85;1.98;;;15.80;46.70;;;;;;5018854;28;20136;-48
2022/04/30 11:29:11;;;;;;;1.70;1.60;;;15.90;45.50;;;;;;5012874;28;20076;-50
2022/04/30 11:31:41;;;;;;;4.07;1.90;;;16.00;45.40;;;;;;5015652;28;20041;-50
2022/04/30 11:34:09;;;;;;;1.70;1.50;;;16.10;45.60;;;;;;5008276;28;20073;-51
2022/04/30 11:36:46;;;;;;;1.95;1.52;;;16.20;45.10;;;;;;5020910;28;20065;-49
2022/04/30 11:39:15;;;;;;;1.98;1.55;;;16.30;43.90;;;;;;5004769;28;20466;-51
2022/04/30 11:41:46;;;;;;;2.17;1.73;;;16.50;44.60;;;;;;5022176;28;20128;-47
2022/04/30 11:44:14;;;;;;;2.85;1.52;;;16.60;45.50;;;;;;5010979;28;20141;-50
2022/04/30 11:46:43;;;;;;;2.17;1.70;;;16.70;43.70;;;;;;5018859;28;20041;-50
2022/04/30 11:49:14;;;;;;;3.00;1.63;;;16.80;43.10;;;;;;5009669;28;20493;-52
2022/04/30 11:52:02;;;;;;;2.85;1.75;;;16.90;43.10;;;;;;5020709;28;20130;-51
2022/04/30 11:54:29;;;;;;;1.85;1.75;;;17.00;42.80;;;;;;5012470;28;20127;-53
2022/04/30 11:57:02;;;;;;;2.85;1.85;;;17.10;42.70;;;;;;5024882;28;20048;-49
2022/04/30 11:59:39;;;;;;;2.90;1.90;;;17.30;43.30;;;;;;5010913;28;20421;-51
2022/04/30 12:02:08;;;;;;;2.10;1.75;;;17.40;43.10;;;;;;5025891;28;20048;-49
2022/04/30 12:04:41;;;;;;;2.25;1.38;;;17.60;43.20;;;;;;5004816;28;20029;-53
2022/04/30 12:07:09;;;;;;;1.65;1.55;;;17.80;42.90;;;;;;5022804;28;20099;-49
2022/04/30 12:09:38;;;;;;;2.28;1.80;;;17.90;42.60;;;;;;5003138;28;20579;-47
2022/04/30 12:12:19;;;;;;;3.85;2.03;;;18.00;41.80;;;;;;5022125;28;20091;-52
2022/04/30 12:14:47;;;;;;;3.95;2.10;;;18.00;41.50;;;;;;5005690;28;20041;-48
2022/04/30 12:17:14;;;;;;;1.90;1.73;;;18.00;41.50;;;;;;5025963;28;20075;-48
2022/04/30 12:25:20;;;;;;;3.03;1.90;;;18.30;41.30;;;;;;5008465;28;20103;-50
2022/04/30 12:27:58;;;;;;;3.08;1.90;;;18.40;41.50;;;;;;5027590;28;20582;-48
2022/04/30 12:30:50;;;;;;;2.55;2.35;;;18.50;40.50;;;;;;5014274;28;20044;-49
2022/04/30 12:33:17;;;;;;;3.17;1.80;;;18.60;39.90;;;;;;5011956;28;20088;-53
2022/04/30 12:35:44;;;;;;;1.55;1.42;;;18.60;40.80;;;;;;5015740;28;20038;-48
2022/04/30 12:38:13;;;;;;;2.30;1.83;;;18.60;41.20;;;;;;5019124;28;20417;-53
2022/04/30 12:40:42;;;;;;;1.80;1.70;;;18.70;40.40;;;;;;5014043;28;20033;-47
2022/04/30 12:43:09;;;;;;;4.03;2.40;;;18.70;39.80;;;;;;5012782;28;20464;-54
2022/04/30 12:45:37;;;;;;;3.03;2.75;;;18.70;40.50;;;;;;5014582;28;20057;-49
2022/04/30 12:48:05;;;;;;;3.83;3.38;;;18.80;41.60;;;;;;5026603;28;20041;-53
2022/04/30 12:50:33;;;;;;;4.57;2.90;;;18.80;41.30;;;;;;5010773;28;20317;-49
2022/04/30 12:52:59;;;;;;;4.88;2.50;;;18.90;41.00;;;;;;5011421;28;20507;-51
2022/04/30 12:55:29;;;;;;;2.97;2.70;;;19.00;41.00;;;;;;5008549;28;20092;-50
2022/04/30 12:57:56;;;;;;;3.78;2.72;;;19.10;40.60;;;;;;5025707;28;20091;-48
2022/04/30 13:00:23;;;;;;;3.65;2.78;;;19.40;41.60;;;;;;5008571;28;20552;-51
2022/04/30 13:02:51;;;;;;;3.42;2.90;;;19.50;41.00;;;;;;5022221;28;20065;-48
2022/04/30 13:05:18;;;;;;;2.70;2.50;;;19.70;40.10;;;;;;5006492;28;20119;-52
2022/04/30 13:07:45;;;;;;;3.65;2.97;;;19.80;39.70;;;;;;5020834;28;20107;-51
2022/04/30 13:15:44;;;;;;;3.75;2.40;;;20.10;39.60;;;;;;5015862;28;20033;-45
2022/04/30 13:18:12;;;;;;;2.30;2.10;;;20.20;39.00;;;;;;5021757;28;20053;-49
2022/04/30 13:20:39;;;;;;;3.67;2.60;;;20.10;39.40;;;;;;5005572;28;20052;-49
2022/04/30 13:23:06;;;;;;;2.70;2.50;;;20.10;39.50;;;;;;5010889;28;20038;-48
2022/04/30 13:25:33;;;;;;;2.22;2.03;;;20.00;38.30;;;;;;5011756;28;20120;-48
2022/04/30 13:28:00;;;;;;;2.47;2.10;;;20.00;38.20;;;;;;5020738;28;20077;-45
2022/04/30 13:30:29;;;;;;;2.55;1.90;;;19.90;38.50;;;;;;5007719;28;20096;-47
2022/04/30 13:32:56;;;;;;;4.97;2.40;;;19.90;38.80;;;;;;5021628;28;20088;-51
2022/04/30 13:35:23;;;;;;;4.30;3.05;;;19.90;39.30;;;;;;5003081;28;20502;-49
2022/04/30 13:37:51;;;;;;;3.58;2.80;;;20.00;39.70;;;;;;5018791;28;20042;-50
2022/04/30 13:40:18;;;;;;;3.80;2.63;;;20.30;41.00;;;;;;5004314;28;20053;-46